Bucksport, South Carolina
Current Conditions -  °F | °C
As of 1:15 PM on Tuesday 21 Oct 2014 (Local Time) from KHYW Reporting Station
Haze Haze  
Wind Chill: 75°   Ceiling: Unl
Heat Index: 75°   Visibility: 5mi
Dew Point: 54°   Wind: 8mph
Humidity: 47%   Direction: 250°WSW
Pressure: 29.9"   Gusts: NA
Location:  33.736°N, 79.1183°W
Report Text: KHYW 211715Z AUTO 25007KT 200V280 5SM HZ CLR 24/12 A2990 RMK AO2
Loading
Personal Weather Stations






























Interactive Weather Map
Tropical Storm Tracking
New forecast layout! Learn more

10-Day Weather Forecast

Advertisements
Track Severe Weather on mobile